createdAt,value
2018-08-30T00:00:08.011Z,99653.70
2018-08-30T00:02:36.929Z,99654.28
2018-08-30T00:05:05.845Z,99652.69
2018-08-30T00:07:34.750Z,99647.38
2018-08-30T00:10:03.685Z,99647.93
2018-08-30T00:12:32.603Z,99650.86
2018-08-30T00:15:01.523Z,99649.83
2018-08-30T00:17:30.434Z,99649.62
2018-08-30T00:19:59.389Z,99646.20
2018-08-30T00:22:28.305Z,99648.20
2018-08-30T00:24:57.196Z,99649.45
2018-08-30T00:27:26.202Z,99643.01
2018-08-30T00:29:55.155Z,99645.90
2018-08-30T00:32:24.096Z,99644.55
2018-08-30T00:34:53.033Z,99644.47
2018-08-30T00:37:21.958Z,99640.27
2018-08-30T00:39:50.872Z,99634.07
2018-08-30T00:42:19.764Z,99638.45
2018-08-30T00:44:48.701Z,99638.78
2018-08-30T00:47:20.594Z,99644.08
2018-08-30T00:49:50.250Z,99637.42
2018-08-30T00:52:19.788Z,99634.58
2018-08-30T00:54:48.711Z,99632.05
2018-08-30T00:57:18.050Z,99637.89
2018-08-30T00:59:47.352Z,99638.34
2018-08-30T01:02:16.285Z,99636.74
2018-08-30T01:04:45.218Z,99632.69
2018-08-30T01:07:14.128Z,99634.92
2018-08-30T01:09:43.059Z,99635.59
2018-08-30T01:12:11.952Z,99635.23
2018-08-30T01:14:40.992Z,99639.30
2018-08-30T01:17:09.911Z,99636.94
2018-08-30T01:19:38.831Z,99641.74
2018-08-30T01:22:08.638Z,99642.98
2018-08-30T01:24:37.527Z,99640.49
2018-08-30T01:27:06.451Z,99634.82
2018-08-30T01:29:35.377Z,99639.34
2018-08-30T01:32:04.336Z,99633.05
2018-08-30T01:34:33.248Z,99631.70
2018-08-30T01:37:02.243Z,99631.19
2018-08-30T01:39:31.267Z,99641.00
2018-08-30T01:42:00.180Z,99631.53
2018-08-30T01:44:29.092Z,99630.72
2018-08-30T01:46:58.019Z,99639.30
2018-08-30T01:49:26.936Z,99641.36
2018-08-30T01:51:55.833Z,99656.77
2018-08-30T01:54:24.736Z,99664.98
2018-08-30T01:56:53.681Z,99660.30
2018-08-30T01:59:22.621Z,99657.06
2018-08-30T02:01:52.199Z,99663.36
2018-08-30T02:04:35.558Z,99663.98
2018-08-30T02:07:09.911Z,99647.39
2018-08-30T02:09:38.850Z,99655.78
2018-08-30T02:12:07.758Z,99649.63
2018-08-30T02:14:36.744Z,99654.62
2018-08-30T02:17:05.835Z,99655.06
2018-08-30T02:19:35.178Z,99648.20
2018-08-30T02:22:04.501Z,99645.38
2018-08-30T02:24:33.408Z,99650.22
2018-08-30T02:27:02.394Z,99653.09
2018-08-30T02:29:31.310Z,99655.01
2018-08-30T02:32:00.314Z,99653.19
2018-08-30T02:34:29.271Z,99659.68
2018-08-30T02:36:58.203Z,99658.55
2018-08-30T02:39:27.363Z,99658.55
2018-08-30T02:41:56.271Z,99645.13
2018-08-30T02:44:25.205Z,99656.68
2018-08-30T02:46:54.141Z,99655.83
2018-08-30T02:49:23.061Z,99652.55
2018-08-30T02:51:51.947Z,99656.77
2018-08-30T02:54:20.875Z,99649.22
2018-08-30T02:56:49.793Z,99654.23
2018-08-30T02:59:18.759Z,99657.83
2018-08-30T03:01:47.783Z,99652.20
2018-08-30T03:04:16.692Z,99662.35
2018-08-30T03:06:45.591Z,99662.11
2018-08-30T03:09:15.376Z,99663.64
2018-08-30T03:11:45.187Z,99672.33
2018-08-30T03:14:14.329Z,99663.25
2018-08-30T03:16:43.847Z,99658.33
2018-08-30T03:19:12.816Z,99664.56
2018-08-30T03:21:42.310Z,99656.66
2018-08-30T03:24:11.421Z,99656.91
2018-08-30T03:26:40.308Z,99666.73
2018-08-30T03:29:09.245Z,99667.88
2018-08-30T03:31:38.331Z,99663.45
2018-08-30T03:34:07.390Z,99667.88
2018-08-30T03:36:38.236Z,99668.58
2018-08-30T03:39:07.229Z,99664.27
2018-08-30T03:41:37.943Z,99672.87
2018-08-30T03:44:06.848Z,99680.44
2018-08-30T03:46:35.747Z,99682.03
2018-08-30T03:49:05.047Z,99681.03
2018-08-30T03:51:35.431Z,99678.42
2018-08-30T03:54:04.380Z,99680.02
2018-08-30T03:56:33.316Z,99685.55
2018-08-30T03:59:02.239Z,99678.46
2018-08-30T04:01:34.600Z,99676.19
2018-08-30T04:04:03.581Z,99679.58
2018-08-30T04:06:32.417Z,99686.69
2018-08-30T04:09:01.328Z,99683.18
2018-08-30T04:11:31.136Z,99686.79
2018-08-30T04:14:00.112Z,99684.42
2018-08-30T04:16:29.047Z,99692.55
2018-08-30T04:19:03.525Z,99692.25
2018-08-30T04:21:33.744Z,99699.38
2018-08-30T04:24:03.372Z,99701.85
2018-08-30T04:26:32.393Z,99701.72
2018-08-30T04:29:02.280Z,99705.58
2018-08-30T04:31:33.587Z,99715.16
2018-08-30T04:34:02.432Z,99707.62
2018-08-30T04:36:31.380Z,99711.69
2018-08-30T04:39:00.284Z,99719.84
2018-08-30T04:41:29.727Z,99715.42
2018-08-30T04:43:58.671Z,99719.97
2018-08-30T04:46:27.680Z,99716.02
2018-08-30T04:48:56.602Z,99720.06
2018-08-30T04:51:25.528Z,99721.76
2018-08-30T04:53:54.568Z,99726.51
2018-08-30T04:56:23.509Z,99733.29
2018-08-30T04:58:52.414Z,99736.25
2018-08-30T05:01:28.425Z,99740.08
2018-08-30T05:03:57.506Z,99736.47
2018-08-30T05:06:26.499Z,99735.34
2018-08-30T05:08:55.473Z,99737.00
2018-08-30T05:11:28.283Z,99743.36
2018-08-30T05:13:57.373Z,99745.50
2018-08-30T05:16:26.345Z,99740.17
2018-08-30T05:18:55.210Z,99743.13
2018-08-30T05:21:24.943Z,99749.80
2018-08-30T05:23:54.088Z,99746.75
2018-08-30T05:26:23.014Z,99749.67
2018-08-30T05:28:51.908Z,99752.52
2018-08-30T05:31:21.969Z,99758.72
2018-08-30T05:33:59.020Z,99767.44
2018-08-30T05:36:28.280Z,99770.14
2018-08-30T05:38:57.206Z,99762.22
2018-08-30T05:41:26.271Z,99765.97
2018-08-30T05:43:55.179Z,99769.11
2018-08-30T05:46:24.090Z,99772.85
2018-08-30T05:48:53.019Z,99771.92
2018-08-30T05:51:22.032Z,99768.76
2018-08-30T05:53:50.951Z,99768.19
2018-08-30T05:56:19.872Z,99776.55
2018-08-30T05:58:48.860Z,99780.50
2018-08-30T06:01:17.826Z,99781.64
2018-08-30T06:03:46.777Z,99781.09
2018-08-30T06:06:15.696Z,99777.11
2018-08-30T06:08:44.603Z,99782.33
2018-08-30T06:11:13.510Z,99780.28
2018-08-30T06:13:42.417Z,99785.72
2018-08-30T06:16:11.341Z,99777.36
2018-08-30T06:18:40.243Z,99785.27
2018-08-30T06:21:11.548Z,99780.28
2018-08-30T06:23:40.445Z,99783.33
2018-08-30T06:26:09.385Z,99784.02
2018-08-30T06:28:38.294Z,99784.69
2018-08-30T06:31:07.215Z,99782.78
2018-08-30T06:33:36.133Z,99786.63
2018-08-30T06:36:05.035Z,99781.19
2018-08-30T06:38:33.966Z,99776.21
2018-08-30T06:41:02.875Z,99785.50
2018-08-30T06:43:31.807Z,99788.69
2018-08-30T06:46:00.719Z,99794.46
2018-08-30T06:48:29.723Z,99797.97
2018-08-30T06:50:58.574Z,99799.88
2018-08-30T06:53:27.481Z,99803.84
2018-08-30T06:55:56.385Z,99796.84
2018-08-30T06:58:25.378Z,99795.23
2018-08-30T07:00:54.206Z,99800.80
2018-08-30T07:03:23.162Z,99797.27
2018-08-30T07:05:52.268Z,99800.91
2018-08-30T07:08:21.161Z,99807.02
2018-08-30T07:10:50.125Z,99806.54
2018-08-30T07:13:19.171Z,99802.37
2018-08-30T07:15:48.094Z,99815.38
2018-08-30T07:18:17.013Z,99810.86
2018-08-30T07:20:46.004Z,99809.27
2018-08-30T07:23:14.949Z,99819.09
2018-08-30T07:25:43.994Z,99819.09
2018-08-30T07:28:12.925Z,99814.70
2018-08-30T07:30:41.871Z,99818.30
2018-08-30T07:33:10.786Z,99810.27
2018-08-30T07:35:39.701Z,99811.17
2018-08-30T07:38:08.674Z,99808.80
2018-08-30T07:40:37.595Z,99818.97
2018-08-30T07:43:06.523Z,99810.33
2018-08-30T07:45:35.426Z,99808.42
2018-08-30T07:48:04.356Z,99807.03
2018-08-30T07:50:33.292Z,99814.46
2018-08-30T07:53:02.207Z,99813.36
2018-08-30T07:55:31.139Z,99807.32
2018-08-30T07:58:00.058Z,99809.23
2018-08-30T08:00:28.980Z,99812.80
2018-08-30T08:02:57.909Z,99811.14
2018-08-30T08:05:26.843Z,99819.13
2018-08-30T08:07:55.785Z,99822.82
2018-08-30T08:10:24.728Z,99824.27
2018-08-30T08:12:53.707Z,99822.28
2018-08-30T08:15:22.636Z,99815.27
2018-08-30T08:17:51.551Z,99824.81
2018-08-30T08:20:20.534Z,99839.41
2018-08-30T08:22:49.461Z,99844.22
2018-08-30T08:25:19.258Z,99858.82
2018-08-30T08:27:48.202Z,99869.38
2018-08-30T08:30:17.099Z,99873.09
2018-08-30T08:32:46.181Z,99873.19
2018-08-30T08:35:15.088Z,99878.37
2018-08-30T08:37:44.040Z,99881.01
2018-08-30T08:40:13.005Z,99890.38
2018-08-30T08:42:41.959Z,99892.41
2018-08-30T08:45:10.993Z,99898.50
2018-08-30T08:47:39.980Z,99902.47
2018-08-30T08:50:08.886Z,99900.20
2018-08-30T08:52:37.813Z,99913.56
2018-08-30T08:55:06.844Z,99914.66
2018-08-30T08:57:35.820Z,99922.91
2018-08-30T09:00:05.001Z,99926.63
2018-08-30T09:02:33.925Z,99927.98
2018-08-30T09:05:02.836Z,99927.45
2018-08-30T09:07:31.763Z,99926.88
2018-08-30T09:10:00.657Z,99933.77
2018-08-30T09:12:29.555Z,99929.45
2018-08-30T09:14:58.469Z,99937.05
2018-08-30T09:17:27.500Z,99940.97
2018-08-30T09:19:56.442Z,99940.42
2018-08-30T09:22:25.430Z,99943.08
2018-08-30T09:24:54.339Z,99944.76
2018-08-30T09:27:23.267Z,99947.91
2018-08-30T09:29:52.210Z,99943.05
2018-08-30T09:32:21.123Z,99945.00
2018-08-30T09:34:50.038Z,99937.41
2018-08-30T09:37:18.971Z,99943.62
2018-08-30T09:39:47.910Z,99950.65
2018-08-30T09:42:16.831Z,99954.50
2018-08-30T09:44:45.819Z,99956.40
2018-08-30T09:47:14.743Z,99958.11
2018-08-30T09:49:43.708Z,99969.31
2018-08-30T09:52:12.567Z,99970.78
2018-08-30T09:54:41.532Z,99973.06
2018-08-30T09:57:10.547Z,99973.42
2018-08-30T09:59:39.429Z,99979.63
2018-08-30T10:02:13.755Z,99979.52
2018-08-30T10:04:42.748Z,99981.53
2018-08-30T10:07:11.635Z,99986.77
2018-08-30T10:09:40.581Z,99983.45
2018-08-30T10:12:09.587Z,99981.16
2018-08-30T10:14:38.525Z,99989.88
2018-08-30T10:17:07.478Z,99988.91
2018-08-30T10:19:36.437Z,99990.25
2018-08-30T10:22:05.623Z,99993.20
2018-08-30T10:24:35.484Z,100004.83
2018-08-30T10:27:04.427Z,100000.37
2018-08-30T10:29:33.396Z,100005.86
2018-08-30T10:32:02.319Z,100010.25
2018-08-30T10:34:31.285Z,100011.83
2018-08-30T10:37:00.235Z,100011.75
2018-08-30T10:39:29.158Z,100012.05
2018-08-30T10:41:58.639Z,100009.20
2018-08-30T10:44:27.584Z,100015.53
2018-08-30T10:46:56.524Z,100010.53
2018-08-30T10:49:25.619Z,100011.12
2018-08-30T10:51:54.526Z,100011.92
2018-08-30T10:54:23.590Z,100014.98
2018-08-30T10:56:52.532Z,100021.24
2018-08-30T10:59:21.506Z,100011.05
2018-08-30T11:01:50.762Z,100019.16
2018-08-30T11:04:19.777Z,100015.66
2018-08-30T11:06:48.712Z,100018.26
2018-08-30T11:09:17.617Z,100021.22
2018-08-30T11:11:46.593Z,100021.00
2018-08-30T11:14:15.756Z,100020.67
2018-08-30T11:16:46.451Z,100028.82
2018-08-30T11:19:17.459Z,100028.93
2018-08-30T11:21:46.362Z,100033.70
2018-08-30T11:24:15.367Z,100031.54
2018-08-30T11:26:44.307Z,100040.69
2018-08-30T11:29:13.276Z,100043.80
2018-08-30T11:31:42.202Z,100052.83
2018-08-30T11:34:11.270Z,100060.54
2018-08-30T11:36:40.259Z,100058.72
2018-08-30T11:39:09.596Z,100054.61
2018-08-30T11:41:38.929Z,100061.28
2018-08-30T11:44:08.129Z,100069.28
2018-08-30T11:46:37.289Z,100068.91
2018-08-30T11:49:06.500Z,100076.88
2018-08-30T11:51:35.432Z,100079.29
2018-08-30T11:54:04.422Z,100090.06
2018-08-30T11:56:33.357Z,100092.00
2018-08-30T11:59:02.334Z,100098.50
2018-08-30T12:01:31.303Z,100094.84
2018-08-30T12:04:00.253Z,100093.69
2018-08-30T12:06:29.233Z,100107.05
2018-08-30T12:08:58.198Z,100102.98
2018-08-30T12:11:27.338Z,100107.63
2018-08-30T12:13:56.264Z,100114.90
2018-08-30T12:16:25.210Z,100118.87
2018-08-30T12:18:54.208Z,100112.73
2018-08-30T12:21:23.216Z,100120.39
2018-08-30T12:23:52.184Z,100122.44
2018-08-30T12:26:21.299Z,100125.73
2018-08-30T12:28:50.492Z,100129.59
2018-08-30T12:31:19.802Z,100132.39
2018-08-30T12:33:48.754Z,100127.93
2018-08-30T12:36:17.693Z,100133.00
2018-08-30T12:38:46.746Z,100134.84
2018-08-30T12:41:15.786Z,100136.95
2018-08-30T12:43:44.684Z,100140.23
2018-08-30T12:46:13.660Z,100137.88
2018-08-30T12:48:42.580Z,100140.39
2018-08-30T12:51:11.839Z,100145.10
2018-08-30T12:53:40.816Z,100144.20
2018-08-30T12:56:09.768Z,100151.27
2018-08-30T12:58:38.751Z,100146.98
2018-08-30T13:01:07.725Z,100146.77
2018-08-30T13:03:36.647Z,100144.67
2018-08-30T13:06:05.862Z,100140.02
2018-08-30T13:08:34.843Z,100139.64
2018-08-30T13:11:03.842Z,100147.55
2018-08-30T13:13:32.719Z,100153.86
2018-08-30T13:16:01.608Z,100161.91
2018-08-30T13:18:30.931Z,100167.22
2018-08-30T13:20:59.697Z,100180.02
2018-08-30T13:23:28.697Z,100170.80
2018-08-30T13:25:57.632Z,100182.05
2018-08-30T13:28:26.844Z,100182.61
2018-08-30T13:30:55.972Z,100184.78
2018-08-30T13:33:25.054Z,100189.14
2018-08-30T13:35:53.979Z,100195.81
2018-08-30T13:38:22.951Z,100197.27
2018-08-30T13:40:52.126Z,100193.66
2018-08-30T13:43:20.841Z,100201.77
2018-08-30T13:45:49.793Z,100202.87
2018-08-30T13:48:18.729Z,100210.52
2018-08-30T13:50:47.824Z,100204.61
2018-08-30T13:53:16.814Z,100210.56
2018-08-30T13:55:45.677Z,100204.50
2018-08-30T13:58:14.918Z,100213.94
2018-08-30T14:00:43.934Z,100219.19
2018-08-30T14:03:12.646Z,100214.16
2018-08-30T14:05:41.736Z,100229.88
2018-08-30T14:08:10.632Z,100227.39
2018-08-30T14:10:39.644Z,100212.16
2018-08-30T14:13:08.645Z,100213.41
2018-08-30T14:15:37.327Z,100216.69
2018-08-30T14:18:06.365Z,100226.39
2018-08-30T14:20:35.289Z,100233.82
2018-08-30T14:23:04.606Z,100235.75
2018-08-30T14:25:33.537Z,100241.95
2018-08-30T14:28:02.633Z,100244.84
2018-08-30T14:30:31.584Z,100246.61
2018-08-30T14:33:00.602Z,100251.78
2018-08-30T14:35:29.508Z,100256.86
2018-08-30T14:37:58.573Z,100254.14
2018-08-30T14:40:28.458Z,100258.77
2018-08-30T14:42:57.280Z,100261.63
2018-08-30T14:45:26.249Z,100261.31
2018-08-30T14:47:55.182Z,100267.44
2018-08-30T14:50:24.233Z,100262.18
2018-08-30T14:52:53.444Z,100265.37
2018-08-30T14:55:22.313Z,100257.94
2018-08-30T14:57:51.297Z,100264.72
2018-08-30T15:00:20.359Z,100264.89
2018-08-30T15:02:49.357Z,100268.04
2018-08-30T15:05:18.384Z,100264.36
2018-08-30T15:07:47.224Z,100273.77
2018-08-30T15:10:16.149Z,100274.31
2018-08-30T15:12:45.875Z,100274.53
2018-08-30T15:15:14.945Z,100272.08
2018-08-30T15:17:43.933Z,100274.92
2018-08-30T15:20:13.018Z,100269.94
2018-08-30T15:22:41.833Z,100270.17
2018-08-30T15:25:10.728Z,100275.23
2018-08-30T15:27:39.743Z,100279.39
2018-08-30T15:30:08.810Z,100281.92
2018-08-30T15:32:37.679Z,100289.27
2018-08-30T15:35:06.842Z,100289.10
2018-08-30T15:37:35.806Z,100291.41
2018-08-30T15:40:04.769Z,100295.50
2018-08-30T15:42:33.695Z,100293.81
2018-08-30T15:45:02.680Z,100291.08
2018-08-30T15:47:31.618Z,100303.08
2018-08-30T15:50:00.595Z,100302.56
2018-08-30T15:52:29.532Z,100300.64
2018-08-30T15:54:58.448Z,100305.09
2018-08-30T15:57:27.384Z,100297.88
2018-08-30T15:59:56.320Z,100292.89
2018-08-30T16:02:25.373Z,100288.44
2018-08-30T16:04:56.874Z,100291.19
2018-08-30T16:07:25.833Z,100286.91
2018-08-30T16:09:56.663Z,100275.97
2018-08-30T16:12:27.773Z,100278.99
2018-08-30T16:14:56.730Z,100275.89
2018-08-30T16:17:25.976Z,100270.12
2018-08-30T16:19:54.911Z,100268.13
2018-08-30T16:22:32.807Z,100269.12
2018-08-30T16:25:01.720Z,100269.31
2018-08-30T16:27:30.713Z,100263.85
2018-08-30T16:29:59.628Z,100265.43
2018-08-30T16:32:28.581Z,100267.13
2018-08-30T16:34:57.523Z,100262.53
2018-08-30T16:37:28.392Z,100264.73
2018-08-30T16:39:57.484Z,100260.10
2018-08-30T16:42:26.457Z,100264.69
2018-08-30T16:44:55.367Z,100261.68
2018-08-30T16:47:24.530Z,100260.80
2018-08-30T16:49:53.197Z,100268.00
2018-08-30T16:52:22.112Z,100265.97
2018-08-30T16:54:51.027Z,100258.05
2018-08-30T16:57:19.988Z,100261.20
2018-08-30T16:59:48.898Z,100259.30
2018-08-30T17:02:17.971Z,100259.92
2018-08-30T17:04:46.775Z,100265.00
2018-08-30T17:07:15.732Z,100263.38
2018-08-30T17:09:44.648Z,100268.38
2018-08-30T17:12:13.555Z,100269.17
2018-08-30T17:14:42.473Z,100263.80
2018-08-30T17:17:11.546Z,100259.16
2018-08-30T17:19:40.313Z,100263.18
2018-08-30T17:22:09.241Z,100264.09
2018-08-30T17:24:38.202Z,100264.70
2018-08-30T17:27:07.147Z,100258.83
2018-08-30T17:29:36.066Z,100255.42
2018-08-30T17:32:05.012Z,100262.59
2018-08-30T17:34:33.932Z,100263.28
2018-08-30T17:37:02.950Z,100268.77
2018-08-30T17:39:31.794Z,100263.98
2018-08-30T17:42:00.748Z,100269.66
2018-08-30T17:44:29.625Z,100259.50
2018-08-30T17:46:58.553Z,100262.97
2018-08-30T17:49:28.698Z,100266.09
2018-08-30T17:51:57.570Z,100275.37
2018-08-30T17:54:26.546Z,100271.20
2018-08-30T17:56:55.449Z,100277.83
2018-08-30T17:59:24.456Z,100271.99
2018-08-30T18:01:53.469Z,100286.82
2018-08-30T18:04:22.400Z,100289.06
2018-08-30T18:06:51.472Z,100296.82
2018-08-30T18:09:20.261Z,100302.03
2018-08-30T18:11:49.362Z,100306.59
2018-08-30T18:14:18.530Z,100306.34
2018-08-30T18:16:47.433Z,100312.59
2018-08-30T18:19:16.376Z,100310.38
2018-08-30T18:21:46.671Z,100314.63
2018-08-30T18:24:16.066Z,100324.70
2018-08-30T18:26:44.927Z,100326.77
2018-08-30T18:29:13.888Z,100323.42
2018-08-30T18:31:42.856Z,100328.67
2018-08-30T18:34:12.190Z,100322.37
2018-08-30T18:36:41.348Z,100325.04
2018-08-30T18:39:10.895Z,100327.10
2018-08-30T18:41:40.104Z,100328.06
2018-08-30T18:44:09.089Z,100332.64
2018-08-30T18:46:38.081Z,100335.49
2018-08-30T18:49:07.189Z,100340.69
2018-08-30T18:51:36.153Z,100342.21
2018-08-30T18:54:05.095Z,100347.15
2018-08-30T18:56:34.049Z,100352.09
2018-08-30T18:59:03.043Z,100361.01
2018-08-30T19:01:31.936Z,100365.89
2018-08-30T19:04:00.856Z,100366.51
2018-08-30T19:06:29.790Z,100367.87
2018-08-30T19:08:58.744Z,100374.08
2018-08-30T19:11:27.692Z,100381.98
2018-08-30T19:13:56.683Z,100379.98
2018-08-30T19:16:30.937Z,100377.92
2018-08-30T19:19:11.485Z,100378.31
2018-08-30T19:21:40.406Z,100384.86
2018-08-30T19:24:13.534Z,100380.63
2018-08-30T19:26:42.437Z,100379.09
2018-08-30T19:29:11.399Z,100382.63
2018-08-30T19:31:40.369Z,100383.58
2018-08-30T19:34:09.316Z,100380.69
2018-08-30T19:36:38.240Z,100381.49
2018-08-30T19:39:09.520Z,100388.01
2018-08-30T19:41:38.563Z,100398.92
2018-08-30T19:44:07.997Z,100398.92
2018-08-30T19:46:36.895Z,100400.17
2018-08-30T19:49:05.842Z,100401.34
2018-08-30T19:51:34.791Z,100403.91
2018-08-30T19:54:03.721Z,100403.88
2018-08-30T19:56:32.688Z,100404.29
2018-08-30T19:59:01.638Z,100405.56
2018-08-30T20:01:30.539Z,100400.67
2018-08-30T20:03:59.464Z,100403.33
2018-08-30T20:06:28.383Z,100401.89
2018-08-30T20:08:57.300Z,100402.08
2018-08-30T20:11:26.409Z,100401.07
2018-08-30T20:13:55.352Z,100408.83
2018-08-30T20:16:24.293Z,100408.34
2018-08-30T20:18:53.288Z,100404.91
2018-08-30T20:21:22.570Z,100408.40
2018-08-30T20:23:51.545Z,100409.45
2018-08-30T20:26:20.624Z,100413.18
2018-08-30T20:28:49.562Z,100417.23
2018-08-30T20:31:18.508Z,100418.16
2018-08-30T20:33:47.483Z,100421.20
2018-08-30T20:36:16.394Z,100425.55
2018-08-30T20:38:45.333Z,100424.33
2018-08-30T20:41:14.245Z,100429.18
2018-08-30T20:43:43.140Z,100422.48
2018-08-30T20:46:12.051Z,100421.76
2018-08-30T20:48:40.988Z,100430.30
2018-08-30T20:51:10.218Z,100427.53
2018-08-30T20:53:39.187Z,100435.08
2018-08-30T20:56:08.087Z,100441.67
2018-08-30T20:58:37.033Z,100435.83
2018-08-30T21:01:06.008Z,100444.11
2018-08-30T21:03:34.971Z,100442.59
2018-08-30T21:06:03.993Z,100443.08
2018-08-30T21:08:33.076Z,100446.25
2018-08-30T21:11:02.008Z,100442.75
2018-08-30T21:13:30.937Z,100443.12
2018-08-30T21:15:59.897Z,100450.20
2018-08-30T21:18:28.844Z,100446.31
2018-08-30T21:20:58.063Z,100450.50
2018-08-30T21:23:26.930Z,100443.18
2018-08-30T21:25:55.845Z,100449.14
2018-08-30T21:28:24.761Z,100446.20
2018-08-30T21:30:53.681Z,100447.30
2018-08-30T21:33:22.608Z,100453.93
2018-08-30T21:35:51.524Z,100460.02
2018-08-30T21:38:20.454Z,100458.31
2018-08-30T21:40:49.481Z,100459.34
2018-08-30T21:43:18.562Z,100462.36
2018-08-30T21:45:47.751Z,100459.83
2018-08-30T21:48:16.681Z,100460.89
2018-08-30T21:50:45.693Z,100462.92
2018-08-30T21:53:14.617Z,100473.41
2018-08-30T21:55:43.523Z,100468.92
2018-08-30T21:58:12.673Z,100471.39
2018-08-30T22:00:41.648Z,100469.77
2018-08-30T22:03:10.583Z,100470.16
2018-08-30T22:05:39.650Z,100473.89
2018-08-30T22:08:08.614Z,100476.92
2018-08-30T22:10:37.642Z,100475.50
2018-08-30T22:13:06.619Z,100478.56
2018-08-30T22:15:35.611Z,100480.56
2018-08-30T22:18:04.549Z,100478.16
2018-08-30T22:20:34.215Z,100481.77
2018-08-30T22:23:03.137Z,100480.70
2018-08-30T22:25:32.067Z,100478.89
2018-08-30T22:28:00.988Z,100481.23
2018-08-30T22:30:29.975Z,100486.57
2018-08-30T22:32:58.896Z,100492.53
2018-08-30T22:35:27.813Z,100486.25
2018-08-30T22:37:56.730Z,100488.77
2018-08-30T22:40:25.864Z,100488.94
2018-08-30T22:42:54.666Z,100486.53
2018-08-30T22:45:23.596Z,100489.69
2018-08-30T22:47:52.518Z,100491.70
2018-08-30T22:50:21.516Z,100494.28
2018-08-30T22:52:51.835Z,100493.65
2018-08-30T22:55:20.733Z,100497.43
2018-08-30T22:57:49.702Z,100494.33
2018-08-30T23:00:18.615Z,100497.92
2018-08-30T23:02:47.561Z,100501.52
2018-08-30T23:05:16.494Z,100501.56
2018-08-30T23:07:45.423Z,100499.75
2018-08-30T23:10:14.357Z,100504.96
2018-08-30T23:12:43.284Z,100503.34
2018-08-30T23:15:12.217Z,100499.16
2018-08-30T23:17:41.165Z,100504.79
2018-08-30T23:20:10.108Z,100507.58
2018-08-30T23:22:39.156Z,100506.98
2018-08-30T23:25:08.182Z,100504.55
2018-08-30T23:27:37.655Z,100506.55
2018-08-30T23:30:07.368Z,100501.33
2018-08-30T23:32:36.288Z,100504.16
2018-08-30T23:35:05.483Z,100505.22
2018-08-30T23:37:34.448Z,100497.25
2018-08-30T23:40:03.376Z,100499.34
2018-08-30T23:42:32.317Z,100505.37
2018-08-30T23:45:01.233Z,100505.64
2018-08-30T23:47:30.277Z,100499.13
2018-08-30T23:49:59.317Z,100498.18
2018-08-30T23:52:28.212Z,100506.17
2018-08-30T23:54:57.224Z,100507.80
2018-08-30T23:57:26.119Z,100507.92
